createdAt,value
2022-10-10T00:01:35.804Z,21.80
2022-10-10T00:04:04.365Z,21.70
2022-10-10T00:06:33.544Z,21.70
2022-10-10T00:09:02.023Z,21.70
2022-10-10T00:11:31.633Z,21.70
2022-10-10T00:14:00.077Z,21.70
2022-10-10T00:16:30.511Z,21.70
2022-10-10T00:18:58.765Z,21.70
2022-10-10T00:21:27.090Z,21.70
2022-10-10T00:23:55.340Z,21.70
2022-10-10T00:26:23.602Z,21.60
2022-10-10T00:28:53.242Z,21.70
2022-10-10T00:31:21.503Z,21.70
2022-10-10T00:33:49.770Z,21.60
2022-10-10T00:36:20.398Z,21.60
2022-10-10T00:38:48.835Z,21.60
2022-10-10T00:41:17.095Z,21.60
2022-10-10T00:44:03.703Z,21.60
2022-10-10T00:46:32.012Z,21.60
2022-10-10T00:49:00.246Z,21.60
2022-10-10T00:51:28.554Z,21.60
2022-10-10T00:53:57.610Z,21.60
2022-10-10T00:56:27.792Z,21.60
2022-10-10T00:58:57.309Z,21.60
2022-10-10T01:01:27.076Z,21.50
2022-10-10T01:03:57.678Z,21.60
2022-10-10T01:06:26.041Z,21.50
2022-10-10T01:08:57.117Z,21.50
2022-10-10T01:11:44.392Z,21.60
2022-10-10T01:14:17.385Z,21.60
2022-10-10T01:16:49.175Z,21.50
2022-10-10T01:19:32.851Z,21.50
2022-10-10T01:22:05.069Z,21.50
2022-10-10T01:24:48.367Z,21.50
2022-10-10T01:27:30.249Z,21.50
2022-10-10T01:30:06.086Z,21.50
2022-10-10T01:32:36.266Z,21.50
2022-10-10T01:35:31.684Z,21.50
2022-10-10T01:38:11.527Z,21.50
2022-10-10T01:40:42.822Z,21.40
2022-10-10T01:43:11.074Z,21.40
2022-10-10T01:45:44.496Z,21.40
2022-10-10T01:48:12.748Z,21.50
2022-10-10T01:50:48.126Z,21.50
2022-10-10T01:53:18.466Z,21.50
2022-10-10T01:55:51.918Z,21.40
2022-10-10T01:58:38.378Z,21.40
2022-10-10T02:01:09.403Z,21.40
2022-10-10T02:03:39.982Z,21.40
2022-10-10T02:06:10.985Z,21.40
2022-10-10T02:08:42.708Z,21.40
2022-10-10T02:11:11.534Z,21.40
2022-10-10T02:13:42.789Z,21.40
2022-10-10T02:16:14.645Z,21.40
2022-10-10T02:18:45.369Z,21.40
2022-10-10T02:21:13.815Z,21.30
2022-10-10T02:23:42.434Z,21.30
2022-10-10T02:26:13.480Z,21.30
2022-10-10T02:28:45.712Z,21.30
2022-10-10T02:31:17.419Z,21.30
2022-10-10T02:33:47.281Z,21.40
2022-10-10T02:36:15.658Z,21.30
2022-10-10T02:38:46.715Z,21.30
2022-10-10T02:41:15.983Z,21.30
2022-10-10T02:43:50.331Z,21.30
2022-10-10T02:46:19.945Z,21.30
2022-10-10T02:48:48.197Z,21.30
2022-10-10T02:51:16.587Z,21.30
2022-10-10T02:53:44.839Z,21.30
2022-10-10T02:56:13.100Z,21.30
2022-10-10T02:58:43.511Z,21.30
2022-10-10T03:01:11.811Z,21.30
2022-10-10T03:03:41.473Z,21.20
2022-10-10T03:06:12.150Z,21.20
2022-10-10T03:08:40.399Z,21.20
2022-10-10T03:11:08.876Z,21.20
2022-10-10T03:13:37.201Z,21.30
2022-10-10T03:16:06.734Z,21.20
2022-10-10T03:18:34.994Z,21.20
2022-10-10T03:21:04.855Z,21.20
2022-10-10T03:23:34.371Z,21.20
2022-10-10T03:26:02.685Z,21.20
2022-10-10T03:28:31.010Z,21.20
2022-10-10T03:30:59.319Z,21.20
2022-10-10T03:33:27.584Z,21.20
2022-10-10T03:35:55.822Z,21.20
2022-10-10T03:38:31.579Z,21.20
2022-10-10T03:40:59.822Z,21.20
2022-10-10T03:43:28.078Z,21.10
2022-10-10T03:45:56.327Z,21.10
2022-10-10T03:48:24.557Z,21.10
2022-10-10T03:50:52.814Z,21.10
2022-10-10T03:53:21.070Z,21.10
2022-10-10T03:55:50.682Z,21.10
2022-10-10T03:58:22.922Z,21.10
2022-10-10T04:00:56.198Z,21.10
2022-10-10T04:03:24.694Z,21.10
2022-10-10T04:05:53.056Z,21.10
2022-10-10T04:08:21.334Z,21.10
2022-10-10T04:10:50.993Z,21.10
2022-10-10T04:13:20.969Z,21.10
2022-10-10T04:15:51.013Z,21.10
2022-10-10T04:18:19.364Z,21.10
2022-10-10T04:20:59.545Z,21.10
2022-10-10T04:23:27.814Z,21.10
2022-10-10T04:25:57.442Z,21.10
2022-10-10T04:28:25.748Z,21.10
2022-10-10T04:30:56.189Z,21.10
2022-10-10T04:33:24.520Z,21.00
2022-10-10T04:35:52.909Z,21.00
2022-10-10T04:38:22.672Z,21.00
2022-10-10T04:40:53.087Z,21.00
2022-10-10T04:43:22.678Z,21.10
2022-10-10T04:45:50.926Z,21.00
2022-10-10T04:48:19.175Z,21.00
2022-10-10T04:50:52.613Z,21.00
2022-10-10T04:53:20.864Z,21.00
2022-10-10T04:55:49.230Z,21.00
2022-10-10T04:58:17.691Z,21.00
2022-10-10T05:00:47.285Z,21.00
2022-10-10T05:03:15.564Z,21.00
2022-10-10T05:05:49.338Z,21.00
2022-10-10T05:08:20.706Z,21.00
2022-10-10T05:10:49.010Z,20.90
2022-10-10T05:13:20.415Z,21.00
2022-10-10T05:15:51.257Z,20.90
2022-10-10T05:18:24.083Z,20.90
2022-10-10T05:20:52.339Z,20.90
2022-10-10T05:23:20.619Z,21.00
2022-10-10T05:25:49.178Z,21.00
2022-10-10T05:28:17.537Z,21.00
2022-10-10T05:30:45.886Z,21.00
2022-10-10T05:33:16.606Z,21.00
2022-10-10T05:35:44.873Z,21.00
2022-10-10T05:38:13.136Z,21.00
2022-10-10T05:40:41.506Z,21.00
2022-10-10T05:43:09.794Z,21.00
2022-10-10T05:45:38.119Z,21.00
2022-10-10T05:48:06.378Z,21.00
2022-10-10T05:50:38.447Z,20.90
2022-10-10T05:53:07.483Z,21.00
2022-10-10T05:55:36.629Z,21.00
2022-10-10T05:58:04.900Z,21.00
2022-10-10T06:00:33.145Z,21.00
2022-10-10T06:03:02.137Z,20.90
2022-10-10T06:05:30.434Z,21.00
2022-10-10T06:08:07.969Z,21.00
2022-10-10T06:10:40.828Z,20.90
2022-10-10T06:13:13.766Z,20.90
2022-10-10T06:15:42.041Z,21.00
2022-10-10T06:18:12.196Z,20.90
2022-10-10T06:20:41.638Z,20.90
2022-10-10T06:23:11.242Z,20.90
2022-10-10T06:25:41.718Z,20.90
2022-10-10T06:28:12.914Z,20.90
2022-10-10T06:30:41.910Z,21.00
2022-10-10T06:33:10.305Z,20.90
2022-10-10T06:35:42.056Z,20.90
2022-10-10T06:38:12.049Z,20.90
2022-10-10T06:40:40.321Z,20.90
2022-10-10T06:43:11.682Z,20.90
2022-10-10T06:45:40.123Z,20.90
2022-10-10T06:48:08.490Z,20.90
2022-10-10T06:50:36.764Z,20.90
2022-10-10T06:53:05.221Z,20.90
2022-10-10T06:55:36.121Z,20.90
2022-10-10T06:58:04.494Z,20.90
2022-10-10T07:00:32.842Z,20.90
2022-10-10T07:03:01.280Z,20.90
2022-10-10T07:05:29.548Z,20.90
2022-10-10T07:07:57.803Z,20.90
2022-10-10T07:10:26.097Z,20.90
2022-10-10T07:12:56.065Z,20.90
2022-10-10T07:15:24.443Z,20.90
2022-10-10T07:17:58.286Z,20.90
2022-10-10T07:20:26.565Z,20.90
2022-10-10T07:22:54.953Z,20.90
2022-10-10T07:25:23.256Z,20.90
2022-10-10T07:27:52.776Z,21.00
2022-10-10T07:30:22.379Z,21.00
2022-10-10T07:32:51.697Z,21.00
2022-10-10T07:35:20.133Z,21.00
2022-10-10T07:37:48.427Z,21.00
2022-10-10T07:40:16.742Z,21.00
2022-10-10T07:42:44.993Z,21.00
2022-10-10T07:45:13.262Z,21.00
2022-10-10T07:47:43.145Z,21.00
2022-10-10T07:50:11.780Z,21.00
2022-10-10T07:52:42.459Z,21.00
2022-10-10T07:55:13.693Z,21.00
2022-10-10T07:57:41.969Z,21.00
2022-10-10T08:00:12.614Z,21.00
2022-10-10T08:02:42.375Z,21.00
2022-10-10T08:05:17.899Z,21.00
2022-10-10T08:07:46.145Z,21.00
2022-10-10T08:10:14.415Z,21.00
2022-10-10T08:12:42.677Z,21.00
2022-10-10T08:17:41.867Z,21.00
2022-10-10T08:20:10.943Z,21.00
2022-10-10T08:22:39.268Z,21.00
2022-10-10T08:25:10.901Z,21.00
2022-10-10T08:27:39.400Z,21.00
2022-10-10T08:30:08.200Z,21.00
2022-10-10T08:32:36.454Z,21.00
2022-10-10T08:35:06.877Z,21.00
2022-10-10T08:37:37.384Z,21.00
2022-10-10T08:40:08.630Z,21.00
2022-10-10T08:42:47.847Z,21.00
2022-10-10T08:45:18.785Z,21.00
2022-10-10T08:47:49.081Z,21.00
2022-10-10T08:50:21.341Z,21.00
2022-10-10T08:52:51.120Z,21.10
2022-10-10T08:55:22.895Z,21.00
2022-10-10T08:57:52.211Z,21.00
2022-10-10T09:00:22.832Z,21.10
2022-10-10T09:02:54.294Z,21.10
2022-10-10T09:05:30.623Z,21.10
2022-10-10T09:08:11.666Z,21.10
2022-10-10T09:10:42.078Z,21.10
2022-10-10T09:13:16.874Z,21.10
2022-10-10T09:15:50.414Z,21.10
2022-10-10T09:18:22.065Z,21.20
2022-10-10T09:20:55.379Z,21.20
2022-10-10T09:23:26.447Z,21.20
2022-10-10T09:25:56.857Z,21.20
2022-10-10T09:28:37.379Z,21.20
2022-10-10T09:31:12.290Z,21.20
2022-10-10T09:33:42.750Z,21.20
2022-10-10T09:36:14.959Z,21.20
2022-10-10T09:38:45.147Z,21.20
2022-10-10T09:41:15.887Z,21.20
2022-10-10T09:43:44.342Z,21.20
2022-10-10T09:46:12.598Z,21.20
2022-10-10T09:48:52.451Z,21.20
2022-10-10T09:51:22.347Z,21.20
2022-10-10T09:53:51.077Z,21.20
2022-10-10T09:56:20.437Z,21.20
2022-10-10T09:58:49.238Z,21.20
2022-10-10T10:01:19.700Z,21.20
2022-10-10T10:04:27.694Z,21.20
2022-10-10T10:07:05.657Z,21.20
2022-10-10T10:09:33.836Z,21.20
2022-10-10T10:12:02.118Z,21.20
2022-10-10T10:14:32.051Z,21.20
2022-10-10T10:17:11.249Z,21.20
2022-10-10T10:19:40.346Z,21.20
2022-10-10T10:22:32.219Z,21.20
2022-10-10T10:25:00.665Z,21.20
2022-10-10T10:27:29.814Z,21.20
2022-10-10T10:29:58.794Z,21.10
2022-10-10T10:32:44.167Z,21.10
2022-10-10T10:35:21.922Z,21.10
2022-10-10T10:38:00.751Z,21.10
2022-10-10T10:40:32.651Z,21.10
2022-10-10T10:43:30.367Z,21.10
2022-10-10T10:46:04.844Z,21.10
2022-10-10T10:48:40.437Z,21.20
2022-10-10T10:51:16.306Z,21.20
2022-10-10T10:53:48.299Z,21.20
2022-10-10T10:56:20.853Z,21.20
2022-10-10T11:01:56.961Z,21.10
2022-10-10T11:05:23.626Z,21.10
2022-10-10T11:07:39.342Z,21.10
2022-10-10T11:10:14.471Z,21.10
2022-10-10T11:12:48.465Z,21.10
2022-10-10T11:15:18.568Z,21.10
2022-10-10T11:17:48.329Z,21.10
2022-10-10T11:20:21.917Z,21.10
2022-10-10T11:22:52.212Z,21.10
2022-10-10T11:25:23.809Z,21.10
2022-10-10T11:27:53.398Z,21.10
2022-10-10T11:30:22.590Z,21.10
2022-10-10T11:32:53.132Z,21.10
2022-10-10T11:35:34.700Z,21.10
2022-10-10T11:38:07.648Z,21.10
2022-10-10T11:40:46.454Z,21.10
2022-10-10T11:43:19.515Z,21.10
2022-10-10T11:45:53.589Z,21.10
2022-10-10T11:48:37.379Z,21.10
2022-10-10T11:51:12.830Z,21.10
2022-10-10T11:53:45.149Z,21.00
2022-10-10T11:56:18.341Z,21.10
2022-10-10T11:58:48.922Z,21.10
2022-10-10T12:01:19.681Z,21.10
2022-10-10T12:03:47.901Z,21.10
2022-10-10T12:06:21.449Z,21.10
2022-10-10T12:08:53.955Z,21.10
2022-10-10T12:11:27.000Z,21.10
2022-10-10T12:13:56.132Z,21.10
2022-10-10T12:16:30.406Z,21.10
2022-10-10T12:19:02.110Z,21.10
2022-10-10T12:21:30.832Z,21.10
2022-10-10T12:24:02.459Z,21.10
2022-10-10T12:27:04.197Z,21.10
2022-10-10T12:29:47.773Z,21.10
2022-10-10T12:32:28.102Z,21.10
2022-10-10T12:35:00.580Z,21.10
2022-10-10T12:37:29.579Z,21.10
2022-10-10T12:40:20.019Z,21.00
2022-10-10T12:43:22.363Z,21.00
2022-10-10T12:45:59.180Z,21.00
2022-10-10T12:48:27.443Z,21.00
2022-10-10T12:50:57.056Z,21.00
2022-10-10T12:53:26.027Z,21.00
2022-10-10T12:55:55.256Z,21.00
2022-10-10T12:58:27.558Z,21.00
2022-10-10T13:00:58.154Z,21.00
2022-10-10T13:03:28.529Z,21.00
2022-10-10T13:05:57.147Z,21.00
2022-10-10T13:08:25.999Z,20.90
2022-10-10T13:11:06.854Z,21.00
2022-10-10T13:13:35.138Z,21.00
2022-10-10T13:16:09.310Z,21.00
2022-10-10T13:18:38.840Z,21.00
2022-10-10T13:21:08.682Z,21.00
2022-10-10T13:23:37.468Z,21.00
2022-10-10T13:26:05.837Z,21.00
2022-10-10T13:28:34.140Z,21.00
2022-10-10T13:31:05.130Z,21.00
2022-10-10T13:33:34.894Z,21.00
2022-10-10T13:36:07.620Z,21.10
2022-10-10T13:38:36.041Z,21.00
2022-10-10T13:41:05.172Z,21.10
2022-10-10T13:43:34.313Z,21.10
2022-10-10T13:46:06.302Z,21.10
2022-10-10T13:48:41.878Z,21.10
2022-10-10T13:51:11.062Z,21.20
2022-10-10T13:53:50.388Z,21.10
2022-10-10T13:56:22.561Z,21.20
2022-10-10T13:58:51.844Z,21.20
2022-10-10T14:01:23.079Z,21.20
2022-10-10T14:03:53.126Z,21.20
2022-10-10T14:06:21.479Z,21.30
2022-10-10T14:08:49.839Z,21.30
2022-10-10T14:11:19.109Z,21.40
2022-10-10T14:13:49.165Z,21.50
2022-10-10T14:16:23.755Z,21.80
2022-10-10T14:18:53.490Z,22.00
2022-10-10T14:21:21.862Z,22.30
2022-10-10T14:23:50.186Z,22.40
2022-10-10T14:26:19.969Z,22.60
2022-10-10T14:28:48.391Z,22.80
2022-10-10T14:31:16.718Z,22.80
2022-10-10T14:33:44.990Z,22.90
2022-10-10T14:36:15.112Z,23.00
2022-10-10T14:38:43.366Z,23.10
2022-10-10T14:41:13.065Z,23.20
2022-10-10T14:43:45.684Z,23.30
2022-10-10T14:46:17.906Z,23.40
2022-10-10T14:48:46.166Z,23.50
2022-10-10T14:51:33.537Z,23.50
2022-10-10T14:54:10.417Z,23.50
2022-10-10T14:57:08.510Z,23.50
2022-10-10T14:59:48.197Z,23.60
2022-10-10T15:02:20.902Z,23.60
2022-10-10T15:04:49.248Z,23.60
2022-10-10T15:07:19.106Z,23.50
2022-10-10T15:10:18.887Z,23.50
2022-10-10T15:12:37.042Z,23.40
2022-10-10T15:15:06.220Z,23.20
2022-10-10T15:17:34.658Z,23.10
2022-10-10T15:20:03.006Z,23.20
2022-10-10T15:22:32.620Z,23.20
2022-10-10T15:25:01.228Z,23.20
2022-10-10T15:27:29.510Z,23.30
2022-10-10T15:29:57.773Z,23.30
2022-10-10T15:32:26.107Z,23.30
2022-10-10T15:34:54.392Z,23.40
2022-10-10T15:37:24.946Z,23.40
2022-10-10T15:39:54.557Z,23.40
2022-10-10T15:42:23.629Z,23.40
2022-10-10T15:44:52.124Z,23.40
2022-10-10T15:47:20.709Z,23.40
2022-10-10T15:49:49.091Z,23.40
2022-10-10T15:52:17.615Z,23.40
2022-10-10T15:54:48.490Z,23.20
2022-10-10T15:57:19.048Z,23.20
2022-10-10T15:59:47.728Z,23.20
2022-10-10T16:02:15.981Z,23.20
2022-10-10T16:04:44.383Z,23.10
2022-10-10T16:07:26.800Z,23.10
2022-10-10T16:09:55.471Z,23.10
2022-10-10T16:12:25.047Z,23.10
2022-10-10T16:14:53.308Z,22.90
2022-10-10T16:17:23.544Z,22.80
2022-10-10T16:19:52.268Z,22.70
2022-10-10T16:22:20.677Z,22.60
2022-10-10T16:25:21.362Z,22.60
2022-10-10T16:27:38.831Z,22.50
2022-10-10T16:30:10.468Z,22.40
2022-10-10T16:32:42.731Z,22.30
2022-10-10T16:35:11.441Z,22.30
2022-10-10T16:37:39.767Z,22.20
2022-10-10T16:40:08.913Z,22.20
2022-10-10T16:42:38.567Z,22.10
2022-10-10T16:45:07.753Z,22.10
2022-10-10T16:47:36.074Z,22.10
2022-10-10T16:50:05.064Z,22.00
2022-10-10T16:52:37.698Z,22.00
2022-10-10T16:55:07.496Z,21.90
2022-10-10T16:57:35.935Z,21.90
2022-10-10T17:00:06.622Z,21.90
2022-10-10T17:02:34.954Z,21.80
2022-10-10T17:05:03.254Z,21.80
2022-10-10T17:07:31.515Z,21.80
2022-10-10T17:09:59.778Z,21.70
2022-10-10T17:12:28.057Z,21.70
2022-10-10T17:14:56.320Z,21.70
2022-10-10T17:17:25.958Z,21.70
2022-10-10T17:19:54.334Z,21.60
2022-10-10T17:22:22.610Z,21.60
2022-10-10T17:24:50.927Z,21.60
2022-10-10T17:27:19.177Z,21.60
2022-10-10T17:29:47.531Z,21.50
2022-10-10T17:32:15.810Z,21.50
2022-10-10T17:34:45.427Z,21.50
2022-10-10T17:37:13.731Z,21.40
2022-10-10T17:39:41.984Z,21.40
2022-10-10T17:42:10.339Z,21.40
2022-10-10T17:44:44.766Z,21.30
2022-10-10T17:47:17.270Z,21.30
2022-10-10T17:49:46.897Z,21.30
2022-10-10T17:52:20.201Z,21.30
2022-10-10T17:54:49.346Z,21.30
2022-10-10T17:57:17.787Z,21.30
2022-10-10T17:59:46.279Z,21.30
2022-10-10T18:02:16.286Z,21.30
2022-10-10T18:04:45.988Z,21.20
2022-10-10T18:07:14.533Z,21.20
2022-10-10T18:09:43.264Z,21.20
2022-10-10T18:12:11.583Z,21.20
2022-10-10T18:14:39.902Z,21.20
2022-10-10T18:17:08.151Z,21.20
2022-10-10T18:19:36.414Z,21.10
2022-10-10T18:22:06.027Z,21.10
2022-10-10T18:24:34.261Z,21.10
2022-10-10T18:27:02.511Z,21.10
2022-10-10T18:29:30.758Z,21.10
2022-10-10T18:31:59.617Z,21.10
2022-10-10T18:34:28.013Z,21.10
2022-10-10T18:36:56.267Z,21.10
2022-10-10T18:39:30.763Z,21.10
2022-10-10T18:42:03.575Z,21.10
2022-10-10T18:44:33.996Z,21.10
2022-10-10T18:47:02.271Z,21.10
2022-10-10T18:49:33.383Z,21.10
2022-10-10T18:52:02.878Z,21.20
2022-10-10T18:54:33.210Z,21.10
2022-10-10T18:57:01.654Z,21.10
2022-10-10T18:59:30.021Z,21.10
2022-10-10T19:01:58.306Z,21.20
2022-10-10T19:04:26.647Z,21.20
2022-10-10T19:06:57.557Z,21.20
2022-10-10T19:09:26.684Z,21.20
2022-10-10T19:11:56.292Z,21.20
2022-10-10T19:14:29.311Z,21.20
2022-10-10T19:16:57.561Z,21.30
2022-10-10T19:19:25.867Z,21.30
2022-10-10T19:21:54.239Z,21.40
2022-10-10T19:24:25.263Z,21.50
2022-10-10T19:26:55.642Z,21.50
2022-10-10T19:29:25.759Z,21.50
2022-10-10T19:31:54.002Z,21.50
2022-10-10T19:34:22.255Z,21.50
2022-10-10T19:36:50.511Z,21.50
2022-10-10T19:39:18.889Z,21.50
2022-10-10T19:41:51.890Z,21.50
2022-10-10T19:44:20.142Z,21.50
2022-10-10T19:46:49.757Z,21.50
2022-10-10T19:49:17.985Z,21.60
2022-10-10T19:51:46.247Z,21.60
2022-10-10T19:54:14.499Z,21.60
2022-10-10T19:56:42.750Z,21.60
2022-10-10T19:59:11.014Z,21.60
2022-10-10T20:01:39.318Z,21.60
2022-10-10T20:04:09.000Z,21.60
2022-10-10T20:06:37.243Z,21.60
2022-10-10T20:09:10.453Z,21.70
2022-10-10T20:11:41.589Z,21.60
2022-10-10T20:14:12.590Z,21.70
2022-10-10T20:16:40.838Z,21.70
2022-10-10T20:19:10.495Z,21.70
2022-10-10T20:21:38.735Z,21.70
2022-10-10T20:24:08.599Z,21.70
2022-10-10T20:26:39.713Z,21.70
2022-10-10T20:29:11.786Z,21.80
2022-10-10T20:31:40.281Z,22.00
2022-10-10T20:34:10.381Z,22.00
2022-10-10T20:36:39.108Z,22.00
2022-10-10T20:39:08.466Z,22.00
2022-10-10T20:41:37.438Z,22.00
2022-10-10T20:44:09.083Z,22.10
2022-10-10T20:46:38.233Z,22.10
2022-10-10T20:49:07.286Z,22.20
2022-10-10T20:51:36.922Z,22.30
2022-10-10T20:54:05.771Z,22.30
2022-10-10T20:56:34.381Z,22.30
2022-10-10T20:59:02.858Z,22.20
2022-10-10T21:01:31.261Z,22.20
2022-10-10T21:03:59.634Z,22.20
2022-10-10T21:06:28.897Z,22.20
2022-10-10T21:09:00.220Z,22.20
2022-10-10T21:11:28.542Z,22.20
2022-10-10T21:13:57.581Z,22.10
2022-10-10T21:16:27.102Z,22.20
2022-10-10T21:18:58.654Z,22.10
2022-10-10T21:21:27.498Z,22.10
2022-10-10T21:23:58.182Z,22.10
2022-10-10T21:26:28.803Z,22.20
2022-10-10T21:28:57.918Z,22.10
2022-10-10T21:31:27.197Z,22.10
2022-10-10T21:33:55.653Z,22.10
2022-10-10T21:36:25.164Z,22.10
2022-10-10T21:38:56.806Z,22.10
2022-10-10T21:41:25.322Z,22.10
2022-10-10T21:43:55.700Z,22.20
2022-10-10T21:46:27.750Z,22.10
2022-10-10T21:48:57.390Z,22.10
2022-10-10T21:51:25.865Z,22.20
2022-10-10T21:53:57.052Z,22.20
2022-10-10T21:56:28.324Z,22.10
2022-10-10T21:59:01.217Z,22.20
2022-10-10T22:01:32.661Z,22.10
2022-10-10T22:04:00.987Z,22.20
2022-10-10T22:06:29.270Z,22.20
2022-10-10T22:08:58.660Z,22.20
2022-10-10T22:11:27.667Z,22.10
2022-10-10T22:13:58.406Z,22.10
2022-10-10T22:16:26.770Z,22.10
2022-10-10T22:18:55.334Z,22.10
2022-10-10T22:21:27.885Z,22.20
2022-10-10T22:23:58.505Z,22.10
2022-10-10T22:26:26.774Z,22.10
2022-10-10T22:28:55.123Z,22.10
2022-10-10T22:31:24.733Z,22.20
2022-10-10T22:33:52.979Z,22.20
2022-10-10T22:36:21.298Z,22.20
2022-10-10T22:38:51.121Z,22.20
2022-10-10T22:41:19.384Z,22.20
2022-10-10T22:43:50.320Z,22.20
2022-10-10T22:46:19.085Z,22.20
2022-10-10T22:48:48.697Z,22.20
2022-10-10T22:51:17.991Z,22.20
2022-10-10T22:53:46.812Z,22.20
2022-10-10T22:56:16.126Z,22.20
2022-10-10T22:58:44.406Z,22.20
2022-10-10T23:01:14.442Z,22.20
2022-10-10T23:03:42.772Z,22.20
2022-10-10T23:06:12.377Z,22.20
2022-10-10T23:08:40.734Z,22.10
2022-10-10T23:11:11.167Z,22.10
2022-10-10T23:13:39.490Z,22.10
2022-10-10T23:16:08.662Z,22.10
2022-10-10T23:18:37.270Z,22.10
2022-10-10T23:21:05.618Z,22.10
2022-10-10T23:23:35.232Z,22.10
2022-10-10T23:26:06.069Z,22.10
2022-10-10T23:28:34.778Z,22.10
2022-10-10T23:31:05.038Z,22.10
2022-10-10T23:33:36.754Z,22.10
2022-10-10T23:36:08.596Z,22.10
2022-10-10T23:38:38.578Z,22.10
2022-10-10T23:41:06.989Z,22.10
2022-10-10T23:43:35.217Z,22.10
2022-10-10T23:46:03.799Z,22.10
2022-10-10T23:48:32.328Z,22.00
2022-10-10T23:51:02.759Z,22.00
2022-10-10T23:53:31.002Z,22.10
2022-10-10T23:56:00.665Z,22.00
2022-10-10T23:58:28.986Z,22.00
